首页
METAR-TAF:

METAR-TAF

机场 :

Quincy Regional Airport (Baldwin Field)

昆西, 伊利诺伊州, 美国

纬度: 39-56-33N, 经度: 091-11-40W, 海拔: 234米

当前天气观测

该预报发布于1小时和3分钟前的22:54 UTC
风速13节,风向南转西南
温度 33°C
湿度 46%
气压 1010 hPa
能見度: 16.1公里
少量云层高于7000英尺

METAR: KUIN 162254Z AUTO 20013KT 10SM FEW070 33/20 A2982 RMK AO2 SLP090 T03280200

时间: 18:57 (23:57 UTC)

预报

该预报发布于37分钟前的23:20 UTC
预报有效从17日的 00点(UTC)到 17日的 24点(UTC)
风速10节,风向
能見度: 10公里
散云层高于6000英尺
多云层高于25000英尺
从 17日的 0200点(UTC)
风速7节,风向
能見度: 10公里
少量云层高于25000英尺
从 17日的 1600点(UTC)
风速12节,风向,有时为20节阵风
能見度: 10公里
少量云层高于6000英尺
散云层高于25000英尺

TAF: KUIN 162320Z 1700/1724 19010KT P6SM SCT060 BKN250 FM170200 18007KT P6SM FEW250 FM171600 19012G20KT P6SM FEW060 SCT250

超过4000个机场的气象观测和天气预报(METAR&TAF报告)。

可查询的气象台以黄色和红色小点在地图上表示。

将鼠标移到小点上方,可查看气象台名称。

然后点击查看天气观测和预报。

如需切换地图:点击带黑十字的绿色按钮放大地图;点击带横线的绿色按钮缩小地图;或者点击绿色箭头查看邻近地区的地图。


METAR-TAF: